sensor_id;sensor_type;location;lat;lon;timestamp;pressure;altitude;pressure_sealevel;temperature;humidity
74678;BME280;67324;56.326;43.982;2023-06-14T00:00:04;101250.44;;;20.53;43.13
74678;BME280;67324;56.326;43.982;2023-06-14T00:02:34;101241.03;;;20.50;42.99
74678;BME280;67324;56.326;43.982;2023-06-14T00:04:59;101247.81;;;20.53;43.08
74678;BME280;67324;56.326;43.982;2023-06-14T00:07:36;101246.13;;;20.52;43.06
74678;BME280;67324;56.326;43.982;2023-06-14T00:10:03;101243.50;;;20.52;43.12
74678;BME280;67324;56.326;43.982;2023-06-14T00:12:30;101239.22;;;20.51;43.08
74678;BME280;67324;56.326;43.982;2023-06-14T00:14:57;101241.03;;;20.50;43.04
74678;BME280;67324;56.326;43.982;2023-06-14T00:17:22;101242.69;;;20.51;43.01
74678;BME280;67324;56.326;43.982;2023-06-14T00:19:49;101241.84;;;20.51;42.96
74678;BME280;67324;56.326;43.982;2023-06-14T00:22:15;101237.41;;;20.51;42.92
74678;BME280;67324;56.326;43.982;2023-06-14T00:24:41;101235.19;;;20.47;43.09
74678;BME280;67324;56.326;43.982;2023-06-14T00:27:06;101235.19;;;20.47;43.11
74678;BME280;67324;56.326;43.982;2023-06-14T00:29:32;101243.78;;;20.49;43.11
74678;BME280;67324;56.326;43.982;2023-06-14T00:31:58;101240.31;;;20.48;43.10
74678;BME280;67324;56.326;43.982;2023-06-14T00:34:26;101247.50;;;20.46;43.21
74678;BME280;67324;56.326;43.982;2023-06-14T00:36:52;101244.59;;;20.49;43.10
74678;BME280;67324;56.326;43.982;2023-06-14T00:39:18;101254.28;;;20.49;43.06
74678;BME280;67324;56.326;43.982;2023-06-14T00:41:44;101247.50;;;20.46;43.11
74678;BME280;67324;56.326;43.982;2023-06-14T00:44:10;101243.22;;;20.45;43.24
74678;BME280;67324;56.326;43.982;2023-06-14T00:46:36;101237.09;;;20.44;43.28
74678;BME280;67324;56.326;43.982;2023-06-14T00:49:02;101241.53;;;20.44;43.20
74678;BME280;67324;56.326;43.982;2023-06-14T00:51:28;101236.28;;;20.44;43.08
74678;BME280;67324;56.326;43.982;2023-06-14T00:53:54;101249.28;;;20.46;43.23
74678;BME280;67324;56.326;43.982;2023-06-14T00:56:20;101246.66;;;20.46;43.19
74678;BME280;67324;56.326;43.982;2023-06-14T00:58:50;101244.88;;;20.46;43.12
74678;BME280;67324;56.326;43.982;2023-06-14T01:01:16;101237.97;;;20.45;43.19
74678;BME280;67324;56.326;43.982;2023-06-14T01:03:42;101235.31;;;20.45;43.15
74678;BME280;67324;56.326;43.982;2023-06-14T01:06:13;101237.97;;;20.45;43.23
74678;BME280;67324;56.326;43.982;2023-06-14T01:08:48;101237.25;;;20.43;43.25
74678;BME280;67324;56.326;43.982;2023-06-14T01:11:25;101244.16;;;20.44;43.14
74678;BME280;67324;56.326;43.982;2023-06-14T01:13:53;101238.91;;;20.44;43.26
74678;BME280;67324;56.326;43.982;2023-06-14T01:16:21;101234.75;;;20.41;43.21
74678;BME280;67324;56.326;43.982;2023-06-14T01:18:48;101234.47;;;20.44;43.23
74678;BME280;67324;56.326;43.982;2023-06-14T01:21:25;101231.28;;;20.41;43.23
74678;BME280;67324;56.326;43.982;2023-06-14T01:23:52;101235.84;;;20.39;43.22
74678;BME280;67324;56.326;43.982;2023-06-14T01:26:22;101244.31;;;20.42;43.18
74678;BME280;67324;56.326;43.982;2023-06-14T01:28:49;101232.13;;;20.41;43.20
74678;BME280;67324;56.326;43.982;2023-06-14T01:31:20;101229.47;;;20.41;43.18
74678;BME280;67324;56.326;43.982;2023-06-14T01:33:50;101234.75;;;20.41;43.40
74678;BME280;67324;56.326;43.982;2023-06-14T01:36:19;101240.81;;;20.42;43.30
74678;BME280;67324;56.326;43.982;2023-06-14T01:38:46;101230.47;;;20.40;43.16
74678;BME280;67324;56.326;43.982;2023-06-14T01:41:14;101227.13;;;20.38;43.37
74678;BME280;67324;56.326;43.982;2023-06-14T01:43:41;101231.56;;;20.38;43.26
74678;BME280;67324;56.326;43.982;2023-06-14T01:46:08;101228.94;;;20.38;43.20
74678;BME280;67324;56.326;43.982;2023-06-14T01:48:35;101228.66;;;20.41;43.26
74678;BME280;67324;56.326;43.982;2023-06-14T01:51:02;101218.53;;;20.36;43.28
74678;BME280;67324;56.326;43.982;2023-06-14T01:53:28;101220.06;;;20.39;43.33
74678;BME280;67324;56.326;43.982;2023-06-14T01:55:54;101214.38;;;20.34;43.23
74678;BME280;67324;56.326;43.982;2023-06-14T01:58:21;101220.91;;;20.39;43.37
74678;BME280;67324;56.326;43.982;2023-06-14T02:00:46;101205.41;;;20.36;43.19
74678;BME280;67324;56.326;43.982;2023-06-14T02:03:13;101222.69;;;20.39;43.36
74678;BME280;67324;56.326;43.982;2023-06-14T02:05:57;101222.97;;;20.36;43.47
74678;BME280;67324;56.326;43.982;2023-06-14T02:08:23;101223.66;;;20.38;43.36
74678;BME280;67324;56.326;43.982;2023-06-14T02:10:49;101227.25;;;20.37;43.46
74678;BME280;67324;56.326;43.982;2023-06-14T02:13:15;101230.97;;;20.34;43.32
74678;BME280;67324;56.326;43.982;2023-06-14T02:15:41;101215.63;;;20.30;43.32
74678;BME280;67324;56.326;43.982;2023-06-14T02:18:09;101230.84;;;20.36;43.30
74678;BME280;67324;56.326;43.982;2023-06-14T02:20:36;101229.19;;;20.35;43.28
74678;BME280;67324;56.326;43.982;2023-06-14T02:23:02;101228.34;;;20.34;43.24
74678;BME280;67324;56.326;43.982;2023-06-14T02:25:30;101234.44;;;20.35;43.37
74678;BME280;67324;56.326;43.982;2023-06-14T02:27:56;101231.94;;;20.33;43.38
74678;BME280;67324;56.326;43.982;2023-06-14T02:30:22;101237.06;;;20.35;43.48
74678;BME280;67324;56.326;43.982;2023-06-14T02:32:48;101233.47;;;20.36;43.36
74678;BME280;67324;56.326;43.982;2023-06-14T02:35:16;101239.56;;;20.36;43.28
74678;BME280;67324;56.326;43.982;2023-06-14T02:37:43;101231.13;;;20.33;43.45
74678;BME280;67324;56.326;43.982;2023-06-14T02:40:27;101240.53;;;20.35;43.41
74678;BME280;67324;56.326;43.982;2023-06-14T02:42:53;101241.47;;;20.34;43.54
74678;BME280;67324;56.326;43.982;2023-06-14T02:45:19;101255.47;;;20.35;43.48
74678;BME280;67324;56.326;43.982;2023-06-14T02:47:46;101242.34;;;20.35;43.38
74678;BME280;67324;56.326;43.982;2023-06-14T02:50:12;101243.28;;;20.34;43.39
74678;BME280;67324;56.326;43.982;2023-06-14T02:52:38;101242.44;;;20.33;43.55
74678;BME280;67324;56.326;43.982;2023-06-14T02:55:08;101231.13;;;20.33;43.39
74678;BME280;67324;56.326;43.982;2023-06-14T02:57:35;101236.38;;;20.33;43.42
74678;BME280;67324;56.326;43.982;2023-06-14T03:00:03;101235.53;;;20.32;43.54
74678;BME280;67324;56.326;43.982;2023-06-14T03:02:32;101238.16;;;20.32;43.57
74678;BME280;67324;56.326;43.982;2023-06-14T03:04:58;101243.44;;;20.32;43.43
74678;BME280;67324;56.326;43.982;2023-06-14T03:07:29;101233.16;;;20.29;43.50
74678;BME280;67324;56.326;43.982;2023-06-14T03:09:57;101232.31;;;20.29;43.38
74678;BME280;67324;56.326;43.982;2023-06-14T03:12:41;101229.56;;;20.30;43.48
74678;BME280;67324;56.326;43.982;2023-06-14T03:15:09;101234.94;;;20.29;43.46
74678;BME280;67324;56.326;43.982;2023-06-14T03:17:40;101225.25;;;20.29;43.58
74678;BME280;67324;56.326;43.982;2023-06-14T03:20:08;101225.41;;;20.28;43.59
74678;BME280;67324;56.326;43.982;2023-06-14T03:22:34;101222.78;;;20.28;43.52
74678;BME280;67324;56.326;43.982;2023-06-14T03:25:00;101227.78;;;20.31;43.49
74678;BME280;67324;56.326;43.982;2023-06-14T03:27:31;101216.69;;;20.27;43.51
74678;BME280;67324;56.326;43.982;2023-06-14T03:30:15;101227.06;;;20.29;43.59
74678;BME280;67324;56.326;43.982;2023-06-14T03:32:44;101217.66;;;20.26;43.52
74678;BME280;67324;56.326;43.982;2023-06-14T03:35:11;101217.53;;;20.28;43.50
74678;BME280;67324;56.326;43.982;2023-06-14T03:37:44;101214.75;;;20.29;43.24
74678;BME280;67324;56.326;43.982;2023-06-14T03:40:12;101207.97;;;20.27;43.52
74678;BME280;67324;56.326;43.982;2023-06-14T03:42:41;101213.94;;;20.29;43.65
74678;BME280;67324;56.326;43.982;2023-06-14T03:45:07;101220.16;;;20.28;43.67
74678;BME280;67324;56.326;43.982;2023-06-14T03:47:34;101224.44;;;20.29;43.54
74678;BME280;67324;56.326;43.982;2023-06-14T03:50:01;101205.50;;;20.25;43.53
74678;BME280;67324;56.326;43.982;2023-06-14T03:52:29;101209.66;;;20.28;43.45
74678;BME280;67324;56.326;43.982;2023-06-14T03:54:55;101207.03;;;20.28;43.68
74678;BME280;67324;56.326;43.982;2023-06-14T03:57:22;101201.06;;;20.26;43.53
74678;BME280;67324;56.326;43.982;2023-06-14T03:59:49;101204.50;;;20.26;43.67
74678;BME280;67324;56.326;43.982;2023-06-14T04:02:16;101202.72;;;20.27;43.50
74678;BME280;67324;56.326;43.982;2023-06-14T04:04:44;101206.31;;;20.26;43.45
74678;BME280;67324;56.326;43.982;2023-06-14T04:07:12;101204.50;;;20.26;43.57
74678;BME280;67324;56.326;43.982;2023-06-14T04:09:39;101207.25;;;20.25;43.57
74678;BME280;67324;56.326;43.982;2023-06-14T04:12:06;101213.50;;;20.23;43.66
74678;BME280;67324;56.326;43.982;2023-06-14T04:14:32;101214.19;;;20.26;43.57
74678;BME280;67324;56.326;43.982;2023-06-14T04:17:00;101210.59;;;20.27;43.50
74678;BME280;67324;56.326;43.982;2023-06-14T04:19:26;101219.31;;;20.27;43.50
74678;BME280;67324;56.326;43.982;2023-06-14T04:21:53;101217.91;;;20.23;43.59
74678;BME280;67324;56.326;43.982;2023-06-14T04:24:19;101212.66;;;20.23;43.60
74678;BME280;67324;56.326;43.982;2023-06-14T04:26:48;101216.81;;;20.26;43.50
74678;BME280;67324;56.326;43.982;2023-06-14T04:29:16;101215.16;;;20.25;43.63
74678;BME280;67324;56.326;43.982;2023-06-14T04:31:53;101204.63;;;20.25;43.67
74678;BME280;67324;56.326;43.982;2023-06-14T04:34:38;101214.47;;;20.22;43.63
74678;BME280;67324;56.326;43.982;2023-06-14T04:37:06;101205.72;;;20.22;43.63
74678;BME280;67324;56.326;43.982;2023-06-14T04:39:36;101214.47;;;20.22;43.54
74678;BME280;67324;56.326;43.982;2023-06-14T04:42:02;101208.34;;;20.22;43.69
74678;BME280;67324;56.326;43.982;2023-06-14T04:44:29;101210.16;;;20.21;43.74
74678;BME280;67324;56.326;43.982;2023-06-14T04:46:59;101207.53;;;20.21;43.59
74678;BME280;67324;56.326;43.982;2023-06-14T04:49:25;101203.09;;;20.22;43.55
74678;BME280;67324;56.326;43.982;2023-06-14T04:51:53;101212.66;;;20.23;43.55
74678;BME280;67324;56.326;43.982;2023-06-14T04:54:32;101198.00;;;20.20;43.81
74678;BME280;67324;56.326;43.982;2023-06-14T04:57:00;101210.03;;;20.23;43.55
74678;BME280;67324;56.326;43.982;2023-06-14T04:59:27;101206.00;;;20.19;43.61
74678;BME280;67324;56.326;43.982;2023-06-14T05:01:52;101215.28;;;20.23;43.73
74678;BME280;67324;56.326;43.982;2023-06-14T05:04:20;101216.25;;;20.22;43.61
74678;BME280;67324;56.326;43.982;2023-06-14T05:06:48;101198.72;;;20.22;43.67
74678;BME280;67324;56.326;43.982;2023-06-14T05:09:15;101214.47;;;20.22;43.59
74678;BME280;67324;56.326;43.982;2023-06-14T05:11:43;101198.72;;;20.22;43.59
74678;BME280;67324;56.326;43.982;2023-06-14T05:14:14;101209.34;;;20.21;43.71
74678;BME280;67324;56.326;43.982;2023-06-14T05:16:40;101195.88;;;20.14;43.77
74678;BME280;67324;56.326;43.982;2023-06-14T05:19:06;101207.53;;;20.21;43.56
74678;BME280;67324;56.326;43.982;2023-06-14T05:21:32;101209.22;;;20.22;43.72
74678;BME280;67324;56.326;43.982;2023-06-14T05:24:03;101201.44;;;20.21;43.75
74678;BME280;67324;56.326;43.982;2023-06-14T05:26:29;101206.81;;;20.19;43.69
74678;BME280;67324;56.326;43.982;2023-06-14T05:29:14;101208.50;;;20.20;43.72
74678;BME280;67324;56.326;43.982;2023-06-14T05:31:58;101204.34;;;20.18;43.67
74678;BME280;67324;56.326;43.982;2023-06-14T05:34:25;101194.66;;;20.18;43.69
74678;BME280;67324;56.326;43.982;2023-06-14T05:36:51;101210.31;;;20.20;43.83
74678;BME280;67324;56.326;43.982;2023-06-14T05:39:16;101207.69;;;20.20;43.74
74678;BME280;67324;56.326;43.982;2023-06-14T05:41:42;101205.88;;;20.20;43.89
74678;BME280;67324;56.326;43.982;2023-06-14T05:44:08;101197.28;;;20.18;43.77
74678;BME280;67324;56.326;43.982;2023-06-14T05:46:34;101199.66;;;20.21;43.65
74678;BME280;67324;56.326;43.982;2023-06-14T05:49:00;101193.69;;;20.19;43.75
74678;BME280;67324;56.326;43.982;2023-06-14T05:51:26;101190.13;;;20.20;43.68
74678;BME280;67324;56.326;43.982;2023-06-14T05:53:52;101194.53;;;20.20;43.80
74678;BME280;67324;56.326;43.982;2023-06-14T05:56:19;101188.59;;;20.18;43.80
74678;BME280;67324;56.326;43.982;2023-06-14T05:58:45;101198.00;;;20.20;43.69
74678;BME280;67324;56.326;43.982;2023-06-14T06:01:11;101195.38;;;20.20;43.76
74678;BME280;67324;56.326;43.982;2023-06-14T06:03:39;101192.75;;;20.20;43.78
74678;BME280;67324;56.326;43.982;2023-06-14T06:06:04;101184.28;;;20.17;43.84
74678;BME280;67324;56.326;43.982;2023-06-14T06:08:31;101195.38;;;20.20;43.75
74678;BME280;67324;56.326;43.982;2023-06-14T06:10:58;101186.66;;;20.20;43.69
74678;BME280;67324;56.326;43.982;2023-06-14T06:13:24;101185.13;;;20.17;43.65
74678;BME280;67324;56.326;43.982;2023-06-14T06:15:50;101183.34;;;20.18;43.82
74678;BME280;67324;56.326;43.982;2023-06-14T06:18:16;101187.75;;;20.17;43.77
74678;BME280;67324;56.326;43.982;2023-06-14T06:20:42;101189.53;;;20.17;43.79
74678;BME280;67324;56.326;43.982;2023-06-14T06:23:07;101196.31;;;20.19;43.76
74678;BME280;67324;56.326;43.982;2023-06-14T06:25:35;101190.22;;;20.19;43.75
74678;BME280;67324;56.326;43.982;2023-06-14T06:28:01;101196.31;;;20.19;43.77
74678;BME280;67324;56.326;43.982;2023-06-14T06:30:27;101189.41;;;20.18;43.78
74678;BME280;67324;56.326;43.982;2023-06-14T06:32:53;101195.50;;;20.19;43.72
74678;BME280;67324;56.326;43.982;2023-06-14T06:35:21;101188.69;;;20.16;43.71
74678;BME280;67324;56.326;43.982;2023-06-14T06:37:47;101196.59;;;20.16;43.83
74678;BME280;67324;56.326;43.982;2023-06-14T06:40:13;101191.06;;;20.19;43.83
74678;BME280;67324;56.326;43.982;2023-06-14T06:42:39;101186.91;;;20.17;43.84
74678;BME280;67324;56.326;43.982;2023-06-14T06:45:06;101193.00;;;20.17;43.88
74678;BME280;67324;56.326;43.982;2023-06-14T06:47:34;101188.44;;;20.19;43.78
74678;BME280;67324;56.326;43.982;2023-06-14T06:50:00;101187.59;;;20.19;43.78
74678;BME280;67324;56.326;43.982;2023-06-14T06:52:25;101192.03;;;20.18;43.78
74678;BME280;67324;56.326;43.982;2023-06-14T06:54:51;101189.41;;;20.18;43.86
74678;BME280;67324;56.326;43.982;2023-06-14T06:57:21;101185.97;;;20.18;43.77
74678;BME280;67324;56.326;43.982;2023-06-14T06:59:49;101181.66;;;20.17;43.86
74678;BME280;67324;56.326;43.982;2023-06-14T07:02:16;101179.03;;;20.17;43.75
74678;BME280;67324;56.326;43.982;2023-06-14T07:05:00;101178.34;;;20.15;43.81
74678;BME280;67324;56.326;43.982;2023-06-14T07:07:26;101178.34;;;20.15;43.88
74678;BME280;67324;56.326;43.982;2023-06-14T07:09:51;101176.66;;;20.14;43.83
74678;BME280;67324;56.326;43.982;2023-06-14T07:12:18;101175.56;;;20.16;43.83
74678;BME280;67324;56.326;43.982;2023-06-14T07:14:43;101170.31;;;20.16;43.90
74678;BME280;67324;56.326;43.982;2023-06-14T07:17:09;101172.00;;;20.17;43.74
74678;BME280;67324;56.326;43.982;2023-06-14T07:19:36;101164.34;;;20.14;43.89
74678;BME280;67324;56.326;43.982;2023-06-14T07:22:03;101161.72;;;20.14;43.84
74678;BME280;67324;56.326;43.982;2023-06-14T07:24:28;101166.75;;;20.17;43.97
74678;BME280;67324;56.326;43.982;2023-06-14T07:26:54;101171.13;;;20.17;43.81
74678;BME280;67324;56.326;43.982;2023-06-14T07:29:21;101172.81;;;20.18;43.83
74678;BME280;67324;56.326;43.982;2023-06-14T07:31:47;101169.50;;;20.16;43.94
74678;BME280;67324;56.326;43.982;2023-06-14T07:34:13;101176.41;;;20.17;43.91
74678;BME280;67324;56.326;43.982;2023-06-14T07:36:40;101164.22;;;20.16;43.82
74678;BME280;67324;56.326;43.982;2023-06-14T07:39:06;101165.78;;;20.18;43.80
74678;BME280;67324;56.326;43.982;2023-06-14T07:41:32;101173.66;;;20.18;43.85
74678;BME280;67324;56.326;43.982;2023-06-14T07:43:58;101159.81;;;20.16;43.87
74678;BME280;67324;56.326;43.982;2023-06-14T07:46:24;101166.75;;;20.17;43.76
74678;BME280;67324;56.326;43.982;2023-06-14T07:48:50;101172.66;;;20.19;43.77
74678;BME280;67324;56.326;43.982;2023-06-14T07:51:17;101169.50;;;20.16;43.79
74678;BME280;67324;56.326;43.982;2023-06-14T07:53:43;101171.03;;;20.18;43.88
74678;BME280;67324;56.326;43.982;2023-06-14T07:56:09;101166.75;;;20.17;43.87
74678;BME280;67324;56.326;43.982;2023-06-14T07:58:35;101172.13;;;20.16;43.85
74678;BME280;67324;56.326;43.982;2023-06-14T08:01:01;101172.94;;;20.16;43.87
74678;BME280;67324;56.326;43.982;2023-06-14T08:03:32;101169.50;;;20.16;43.87
74678;BME280;67324;56.326;43.982;2023-06-14T08:05:58;101174.34;;;20.20;43.89
74678;BME280;67324;56.326;43.982;2023-06-14T08:08:24;101172.94;;;20.16;43.89
74678;BME280;67324;56.326;43.982;2023-06-14T08:10:50;101174.75;;;20.16;43.81
74678;BME280;67324;56.326;43.982;2023-06-14T08:13:16;101170.31;;;20.16;43.72
74678;BME280;67324;56.326;43.982;2023-06-14T08:15:42;101165.88;;;20.17;43.75
74678;BME280;67324;56.326;43.982;2023-06-14T08:18:07;101172.66;;;20.19;44.04
74678;BME280;67324;56.326;43.982;2023-06-14T08:20:33;101174.47;;;20.19;43.99
74678;BME280;67324;56.326;43.982;2023-06-14T08:23:02;101165.78;;;20.18;43.86
74678;BME280;67324;56.326;43.982;2023-06-14T08:25:30;101169.22;;;20.19;43.85
74678;BME280;67324;56.326;43.982;2023-06-14T08:27:56;101175.31;;;20.19;43.85
74678;BME280;67324;56.326;43.982;2023-06-14T08:30:22;101160.41;;;20.20;43.74
74678;BME280;67324;56.326;43.982;2023-06-14T08:32:48;101161.50;;;20.17;43.92
74678;BME280;67324;56.326;43.982;2023-06-14T08:35:14;101158.88;;;20.17;43.83
74678;BME280;67324;56.326;43.982;2023-06-14T08:37:41;101152.63;;;20.18;43.90
74678;BME280;67324;56.326;43.982;2023-06-14T08:40:28;101165.66;;;20.20;44.07
74678;BME280;67324;56.326;43.982;2023-06-14T08:42:55;101154.28;;;20.19;43.84
74678;BME280;67324;56.326;43.982;2023-06-14T08:45:23;101158.59;;;20.20;43.79
74678;BME280;67324;56.326;43.982;2023-06-14T08:47:50;101157.88;;;20.18;43.97
74678;BME280;67324;56.326;43.982;2023-06-14T08:50:21;101163.69;;;20.22;43.97
74678;BME280;67324;56.326;43.982;2023-06-14T08:52:54;101147.38;;;20.18;43.76
74678;BME280;67324;56.326;43.982;2023-06-14T08:55:23;101148.09;;;20.20;43.93
74678;BME280;67324;56.326;43.982;2023-06-14T08:57:56;101146.41;;;20.19;43.86
74678;BME280;67324;56.326;43.982;2023-06-14T09:00:25;101156.78;;;20.21;44.01
74678;BME280;67324;56.326;43.982;2023-06-14T09:02:52;101141.03;;;20.21;43.88
74678;BME280;67324;56.326;43.982;2023-06-14T09:05:25;101132.19;;;20.22;43.93
74678;BME280;67324;56.326;43.982;2023-06-14T09:07:51;101133.97;;;20.21;43.76
74678;BME280;67324;56.326;43.982;2023-06-14T09:10:18;101133.97;;;20.21;43.96
74678;BME280;67324;56.326;43.982;2023-06-14T09:12:44;101139.22;;;20.21;43.96
74678;BME280;67324;56.326;43.982;2023-06-14T09:15:10;101129.53;;;20.22;43.92
74678;BME280;67324;56.326;43.982;2023-06-14T09:17:37;101130.53;;;20.21;43.88
74678;BME280;67324;56.326;43.982;2023-06-14T09:20:07;101131.50;;;20.20;43.81
74678;BME280;67324;56.326;43.982;2023-06-14T09:22:39;101133.03;;;20.22;43.97
74678;BME280;67324;56.326;43.982;2023-06-14T09:25:06;101128.88;;;20.20;43.83
74678;BME280;67324;56.326;43.982;2023-06-14T09:27:32;101125.81;;;20.25;43.89
74678;BME280;67324;56.326;43.982;2023-06-14T09:29:58;101123.47;;;20.21;43.71
74678;BME280;67324;56.326;43.982;2023-06-14T09:32:43;101122.25;;;20.26;43.59
74678;BME280;67324;56.326;43.982;2023-06-14T09:35:09;101120.56;;;20.25;42.66
74678;BME280;67324;56.326;43.982;2023-06-14T09:37:35;101113.41;;;20.27;42.63
74678;BME280;67324;56.326;43.982;2023-06-14T09:40:04;101111.19;;;20.32;42.87
74678;BME280;67324;56.326;43.982;2023-06-14T09:42:31;101111.34;;;20.30;42.35
74678;BME280;67324;56.326;43.982;2023-06-14T09:44:57;101105.00;;;20.33;42.78
74678;BME280;67324;56.326;43.982;2023-06-14T09:47:24;101111.91;;;20.34;42.44
74678;BME280;67324;56.326;43.982;2023-06-14T09:49:51;101112.72;;;20.34;42.66
74678;BME280;67324;56.326;43.982;2023-06-14T09:52:22;101106.53;;;20.35;43.21
74678;BME280;67324;56.326;43.982;2023-06-14T09:54:52;101104.59;;;20.37;43.25
74678;BME280;67324;56.326;43.982;2023-06-14T09:57:22;101105.28;;;20.39;43.38
74678;BME280;67324;56.326;43.982;2023-06-14T09:59:53;101107.91;;;20.39;43.00
74678;BME280;67324;56.326;43.982;2023-06-14T10:02:29;101099.19;;;20.39;43.33
74678;BME280;67324;56.326;43.982;2023-06-14T10:05:08;101103.34;;;20.41;42.93
74678;BME280;67324;56.326;43.982;2023-06-14T10:07:50;101109.59;;;20.40;42.69
74678;BME280;67324;56.326;43.982;2023-06-14T10:10:18;101097.38;;;20.39;42.19
74678;BME280;67324;56.326;43.982;2023-06-14T10:12:45;101098.25;;;20.40;42.03
74678;BME280;67324;56.326;43.982;2023-06-14T10:15:17;101105.84;;;20.43;41.24
74678;BME280;67324;56.326;43.982;2023-06-14T10:17:55;101086.75;;;20.41;41.27
74678;BME280;67324;56.326;43.982;2023-06-14T10:20:38;101091.03;;;20.42;41.41
74678;BME280;67324;56.326;43.982;2023-06-14T10:23:20;101084.97;;;20.41;41.30
74678;BME280;67324;56.326;43.982;2023-06-14T10:25:50;101082.59;;;20.38;41.36
74678;BME280;67324;56.326;43.982;2023-06-14T10:28:21;101078.88;;;20.41;41.15
74678;BME280;67324;56.326;43.982;2023-06-14T10:31:07;101081.38;;;20.42;40.97
74678;BME280;67324;56.326;43.982;2023-06-14T10:33:55;101071.00;;;20.41;40.79
74678;BME280;67324;56.326;43.982;2023-06-14T10:36:29;101068.25;;;20.42;40.08
74678;BME280;67324;56.326;43.982;2023-06-14T10:39:05;101068.25;;;20.42;40.03
74678;BME280;67324;56.326;43.982;2023-06-14T10:41:35;101065.84;;;20.39;40.68
74678;BME280;67324;56.326;43.982;2023-06-14T10:46:49;101062.31;;;20.50;41.55
74678;BME280;67324;56.326;43.982;2023-06-14T10:49:19;101056.22;;;20.50;41.10
74678;BME280;67324;56.326;43.982;2023-06-14T10:51:49;101056.78;;;20.53;40.48
74678;BME280;67324;56.326;43.982;2023-06-14T10:54:16;101048.19;;;20.51;40.06
74678;BME280;67324;56.326;43.982;2023-06-14T10:56:50;101045.03;;;20.48;40.47
74678;BME280;67324;56.326;43.982;2023-06-14T10:59:35;101042.94;;;20.51;41.25
74678;BME280;67324;56.326;43.982;2023-06-14T11:02:31;101041.00;;;20.53;41.11
74678;BME280;67324;56.326;43.982;2023-06-14T11:05:04;101033.69;;;20.57;39.93
74678;BME280;67324;56.326;43.982;2023-06-14T11:10:41;101028.59;;;20.55;39.32
74678;BME280;67324;56.326;43.982;2023-06-14T11:13:07;101041.19;;;20.61;39.38
74678;BME280;67324;56.326;43.982;2023-06-14T11:15:35;101027.09;;;20.62;39.57
74678;BME280;67324;56.326;43.982;2023-06-14T11:18:06;101020.03;;;20.63;38.67
74678;BME280;67324;56.326;43.982;2023-06-14T11:20:34;101033.59;;;20.68;38.48
74678;BME280;67324;56.326;43.982;2023-06-14T11:23:19;101024.06;;;20.67;38.13
74678;BME280;67324;56.326;43.982;2023-06-14T11:25:51;101014.22;;;20.69;37.61
74678;BME280;67324;56.326;43.982;2023-06-14T11:28:17;101016.00;;;20.69;37.59
74678;BME280;67324;56.326;43.982;2023-06-14T11:30:45;101008.81;;;20.71;37.41
74678;BME280;67324;56.326;43.982;2023-06-14T11:33:17;101012.00;;;20.74;38.14
74678;BME280;67324;56.326;43.982;2023-06-14T11:35:44;101005.91;;;20.74;38.27
74678;BME280;67324;56.326;43.982;2023-06-14T11:38:11;101009.13;;;20.77;37.84
74678;BME280;67324;56.326;43.982;2023-06-14T11:40:59;100994.28;;;20.76;37.64
74678;BME280;67324;56.326;43.982;2023-06-14T11:43:26;101009.13;;;20.77;37.81
74678;BME280;67324;56.326;43.982;2023-06-14T11:45:52;101001.22;;;20.77;38.05
74678;BME280;67324;56.326;43.982;2023-06-14T11:48:18;100994.84;;;20.80;38.43
74678;BME280;67324;56.326;43.982;2023-06-14T11:50:49;100999.69;;;20.84;38.40
74678;BME280;67324;56.326;43.982;2023-06-14T11:53:15;100990.00;;;20.85;37.85
74678;BME280;67324;56.326;43.982;2023-06-14T11:55:42;100984.34;;;20.90;37.12
74678;BME280;67324;56.326;43.982;2023-06-14T11:58:10;100988.31;;;20.94;36.98
74678;BME280;67324;56.326;43.982;2023-06-14T12:00:37;100976.16;;;20.93;37.13
74678;BME280;67324;56.326;43.982;2023-06-14T12:03:03;100981.81;;;20.98;37.17
74678;BME280;67324;56.326;43.982;2023-06-14T12:05:29;100973.13;;;20.97;37.01
74678;BME280;67324;56.326;43.982;2023-06-14T12:07:59;100984.03;;;21.02;36.74
74678;BME280;67324;56.326;43.982;2023-06-14T12:10:26;100977.78;;;21.03;36.65
74678;BME280;67324;56.326;43.982;2023-06-14T12:12:57;100974.34;;;21.03;36.63
74678;BME280;67324;56.326;43.982;2023-06-14T12:15:24;100973.09;;;21.07;36.74
74678;BME280;67324;56.326;43.982;2023-06-14T12:17:50;100976.28;;;21.11;36.54
74678;BME280;67324;56.326;43.982;2023-06-14T12:20:18;100972.53;;;21.13;36.57
74678;BME280;67324;56.326;43.982;2023-06-14T12:22:56;100966.44;;;21.13;36.26
74678;BME280;67324;56.326;43.982;2023-06-14T12:25:31;100965.31;;;21.15;36.26
74678;BME280;67324;56.326;43.982;2023-06-14T12:27:57;100963.81;;;21.13;36.36
74678;BME280;67324;56.326;43.982;2023-06-14T12:30:23;100960.75;;;21.17;36.72
74678;BME280;67324;56.326;43.982;2023-06-14T12:32:49;100964.91;;;21.20;36.87
74678;BME280;67324;56.326;43.982;2023-06-14T12:35:17;100958.66;;;21.21;36.34
74678;BME280;67324;56.326;43.982;2023-06-14T12:37:47;100962.97;;;21.22;36.47
74678;BME280;67324;56.326;43.982;2023-06-14T12:40:13;100956.03;;;21.21;36.22
74678;BME280;67324;56.326;43.982;2023-06-14T12:42:40;100961.84;;;21.24;36.40
74678;BME280;67324;56.326;43.982;2023-06-14T12:45:07;100955.19;;;21.20;36.93
74678;BME280;67324;56.326;43.982;2023-06-14T12:47:33;100956.84;;;21.21;37.31
74678;BME280;67324;56.326;43.982;2023-06-14T12:50:17;100948.97;;;21.21;37.75
74678;BME280;67324;56.326;43.982;2023-06-14T12:52:43;100950.47;;;21.24;37.32